Time;durP1;ratioP1;P1;durP2;ratioP2;P2;SDS_P1;SDS_P2;PMS_P1;PMS_P2;Temp;Humidity;BMP_temperature;BMP_pressure;BME280_temperature;BME280_humidity;BME280_pressure;Samples;Min_cycle;Max_cycle;Signal;HPM_P1;HPM_P2
2022/01/26 00:07:50;;;;;;;124.63;52.97;;;;;;;2.10;81.00;103307.41;5053594;28;20083;-61
2022/01/26 00:10:16;;;;;;;126.50;53.80;;;;;;;2.09;80.65;103312.69;5049043;28;20432;-61
2022/01/26 00:12:41;;;;;;;124.10;54.00;;;;;;;2.07;81.39;103309.25;5043810;28;20066;-62
2022/01/26 00:15:06;;;;;;;124.90;53.07;;;;;;;2.09;81.78;103307.44;5044113;28;20055;-62
2022/01/26 00:17:32;;;;;;;124.03;53.90;;;;;;;2.10;81.44;103311.78;5050344;28;20021;-62
2022/01/26 00:20:07;;;;;;;125.03;53.80;;;;;;;2.08;81.58;103305.72;5051306;28;20033;-62
2022/01/26 00:25:41;;;;;;;127.87;53.07;;;;;;;2.06;81.19;103302.31;5052546;28;20041;-62
2022/01/26 00:28:20;;;;;;;;;;;;;;;2.18;80.43;103307.19;5053236;28;20026;-62
2022/01/26 00:31:59;;;;;;;127.20;52.70;;;;;;;2.10;81.35;103303.91;5036103;28;20280;-62
2022/01/26 00:39:04;;;;;;;129.37;53.13;;;;;;;2.10;81.12;103296.94;5041155;28;20511;-62
2022/01/26 00:41:35;;;;;;;127.80;53.90;;;;;;;2.10;81.73;103301.28;5050022;28;20033;-62
2022/01/26 00:44:01;;;;;;;129.87;53.97;;;;;;;2.10;81.16;103293.44;5055743;28;20051;-61
2022/01/26 00:46:26;;;;;;;127.23;52.20;;;;;;;2.15;80.52;103296.78;5052273;28;20392;-62
2022/01/26 00:48:52;;;;;;;124.70;51.70;;;;;;;2.08;80.74;103295.25;5051384;28;20436;-62
2022/01/26 00:51:20;;;;;;;130.60;53.97;;;;;;;2.04;81.13;103301.47;5052319;28;20121;-62
2022/01/26 00:53:53;;;;;;;135.80;52.37;;;;;;;2.07;81.22;103298.78;5050025;28;20040;-62
2022/01/26 00:56:19;;;;;;;128.30;52.75;;;;;;;2.08;80.43;103290.03;5047621;28;20039;-62
2022/01/26 00:58:45;;;;;;;133.07;53.33;;;;;;;1.98;81.31;103290.28;5054531;28;20459;-62
2022/01/26 01:01:10;;;;;;;139.87;54.40;;;;;;;2.00;81.58;103293.72;5049120;28;20021;-62
2022/01/26 01:03:41;;;;;;;130.63;52.77;;;;;;;1.92;82.33;103273.91;5056232;28;20111;-62
2022/01/26 01:06:15;;;;;;;127.27;52.07;;;;;;;1.98;81.06;103285.03;5042592;28;20572;-61
2022/01/26 01:08:41;;;;;;;135.80;53.60;;;;;;;1.97;81.43;103288.56;5047267;28;20041;-62
2022/01/26 01:11:08;;;;;;;133.27;53.33;;;;;;;2.00;79.64;103288.50;5050787;28;20060;-62
2022/01/26 01:13:36;;;;;;;129.93;53.10;;;;;;;1.97;81.34;103298.19;5049808;28;20355;-61
2022/01/26 01:16:03;;;;;;;134.83;53.40;;;;;;;1.97;80.83;103285.13;5048433;28;20029;-62
2022/01/26 01:26:34;;;;;;;134.57;53.73;;;;;;;1.90;81.29;103276.56;5057296;28;20071;-62
2022/01/26 01:34:10;;;;;;;135.93;52.72;;;;;;;1.91;82.19;103273.03;5052727;28;20033;-62
2022/01/26 01:36:39;;;;;;;132.17;52.93;;;;;;;1.91;82.45;103264.34;5041136;28;20040;-62
2022/01/26 01:39:07;;;;;;;136.57;53.90;;;;;;;1.93;81.05;103266.00;5050204;28;20675;-62
2022/01/26 01:41:34;;;;;;;134.90;53.37;;;;;;;1.93;80.74;103254.69;5051663;28;20031;-62
2022/01/26 01:43:59;;;;;;;134.87;52.43;;;;;;;1.94;80.85;103254.66;5047146;28;20044;-62
2022/01/26 01:46:27;;;;;;;140.83;54.77;;;;;;;1.94;80.81;103246.81;5047860;28;20033;-62
2022/01/26 01:48:52;;;;;;;129.70;51.80;;;;;;;2.04;79.42;103251.75;5056889;28;20040;-62
2022/01/26 01:51:18;;;;;;;131.27;53.00;;;;;;;2.01;79.60;103257.94;5041473;28;20029;-62
2022/01/26 01:53:44;;;;;;;133.07;54.00;;;;;;;1.94;80.08;103262.50;5047788;28;20037;-62
2022/01/26 01:56:13;;;;;;;135.03;54.37;;;;;;;1.93;80.47;103254.69;5049694;28;20382;-62
2022/01/26 01:58:40;;;;;;;138.77;53.97;;;;;;;1.91;80.71;103265.19;5051135;28;20551;-62
2022/01/26 02:01:06;;;;;;;132.43;53.63;;;;;;;1.83;81.45;103248.88;5050672;28;20065;-61
2022/01/26 02:03:31;;;;;;;141.00;53.70;;;;;;;1.83;81.94;103254.09;5052206;28;20032;-62
2022/01/26 02:05:57;;;;;;;134.50;53.57;;;;;;;1.83;81.65;103251.50;5052690;28;20041;-62
2022/01/26 02:08:22;;;;;;;135.47;54.00;;;;;;;1.84;81.40;103251.44;5047918;28;20781;-61
2022/01/26 02:10:48;;;;;;;134.80;53.13;;;;;;;1.84;82.21;103253.19;5040584;28;20048;-62
2022/01/26 02:13:27;;;;;;;137.23;53.77;;;;;;;1.83;82.54;103254.09;5044318;28;20415;-61
2022/01/26 02:16:06;;;;;;;132.13;51.10;;;;;;;1.92;80.00;103243.34;5039496;28;20107;-62
2022/01/26 02:18:59;;;;;;;135.30;54.00;;;;;;;1.84;80.95;103234.88;5046332;28;20041;-62
2022/01/26 02:49:17;;;;;;;136.13;53.00;;;;;;;1.85;80.59;103215.66;5043638;28;20485;-61
2022/01/26 02:52:09;;;;;;;125.63;51.17;;;;;;;1.81;79.98;103208.78;5048189;28;20114;-62
2022/01/26 03:02:35;;;;;;;121.77;49.57;;;;;;;1.90;80.04;103184.97;5049607;28;20043;-62
2022/01/26 03:05:03;;;;;;;122.00;50.43;;;;;;;1.92;79.52;103182.31;5046241;28;20049;-61
2022/01/26 03:10:06;;;;;;;125.50;50.40;;;;;;;1.91;79.14;103184.06;5047539;28;20036;-62
2022/01/26 03:12:43;;;;;;;131.17;52.03;;;;;;;1.90;79.75;103186.72;5046085;28;20045;-60
2022/01/26 03:15:17;;;;;;;125.00;50.97;;;;;;;1.87;79.77;103180.69;5048242;28;20069;-62
2022/01/26 03:18:16;;;;;;;124.93;51.57;;;;;;;1.84;79.97;103169.47;5046452;28;20082;-62
2022/01/26 03:20:42;;;;;;;129.47;51.03;;;;;;;1.82;79.69;103173.91;5048076;28;20528;-61
2022/01/26 03:34:08;;;;;;;131.13;52.57;;;;;;;1.83;79.75;103196.53;5052999;28;20039;-62
2022/01/26 03:36:43;;;;;;;125.35;51.63;;;;;;;1.84;79.95;103193.03;5049772;28;20610;-62
2022/01/26 03:39:10;;;;;;;123.97;50.90;;;;;;;1.85;79.21;103186.88;5044992;28;20087;-60
2022/01/26 03:41:52;;;;;;;129.80;52.93;;;;;;;1.88;79.59;103178.94;5049160;28;20037;-62
2022/01/26 03:44:18;;;;;;;128.17;51.63;;;;;;;1.86;79.42;103188.59;5046653;28;20032;-62
2022/01/26 03:46:44;;;;;;;124.40;50.97;;;;;;;1.88;79.21;103184.19;5047461;28;20034;-62
2022/01/26 03:49:10;;;;;;;121.57;51.37;;;;;;;1.90;79.72;103182.38;5041283;28;20111;-62
2022/01/26 03:51:37;;;;;;;125.67;51.20;;;;;;;1.90;80.10;103171.91;5051791;28;20041;-62
2022/01/26 03:54:04;;;;;;;123.73;50.30;;;;;;;1.80;79.42;103154.75;5051174;28;20048;-61
2022/01/26 03:56:29;;;;;;;124.33;50.77;;;;;;;1.83;79.49;103159.91;5047948;28;20364;-62
2022/01/26 03:58:54;;;;;;;125.23;51.33;;;;;;;1.82;80.06;103164.28;5049597;28;20033;-62
2022/01/26 04:01:20;;;;;;;127.60;52.07;;;;;;;1.81;80.33;103175.66;5044610;28;20512;-62
2022/01/26 04:03:45;;;;;;;128.97;50.33;;;;;;;1.80;80.00;103176.56;5048574;28;20078;-62
2022/01/26 04:06:11;;;;;;;132.80;52.87;;;;;;;1.81;79.96;103174.78;5046524;28;20159;-62
2022/01/26 04:08:39;;;;;;;129.33;51.13;;;;;;;1.82;80.28;103189.59;5046331;28;20033;-62
2022/01/26 04:13:32;;;;;;;128.27;51.73;;;;;;;1.79;79.78;103184.44;5049118;28;20048;-62
2022/01/26 04:15:57;;;;;;;125.87;51.83;;;;;;;1.79;79.94;103189.69;5035962;28;20041;-62
2022/01/26 04:18:29;;;;;;;132.67;52.40;;;;;;;1.76;80.31;103168.84;5044744;28;20029;-62
2022/01/26 04:20:58;;;;;;;131.70;51.87;;;;;;;1.73;80.43;103170.63;5044694;28;20029;-61
2022/01/26 04:23:33;;;;;;;127.63;51.87;;;;;;;1.76;80.09;103181.94;5040832;28;20114;-62
2022/01/26 04:25:58;;;;;;;130.33;52.07;;;;;;;1.76;80.27;103174.09;5048315;28;20457;-62
2022/01/26 04:28:30;;;;;;;128.10;50.93;;;;;;;1.77;80.02;103168.78;5048512;28;20115;-62
2022/01/26 04:30:56;;;;;;;128.93;51.10;;;;;;;1.74;79.95;103181.97;5044787;28;20485;-62
2022/01/26 04:33:21;;;;;;;132.73;51.90;;;;;;;1.76;80.40;103185.38;5053722;28;20071;-62
2022/01/26 04:35:48;;;;;;;126.27;50.27;;;;;;;1.76;80.42;103179.31;5051737;28;20530;-61
2022/01/26 04:38:30;;;;;;;133.33;51.53;;;;;;;1.73;80.38;103181.09;5052699;28;20039;-62
2022/01/26 04:43:27;;;;;;;129.80;51.87;;;;;;;1.69;80.04;103205.66;5048692;28;20060;-62
2022/01/26 04:45:52;;;;;;;126.57;49.80;;;;;;;1.69;80.32;103205.66;5052067;28;20029;-62
2022/01/26 04:48:19;;;;;;;129.07;51.40;;;;;;;1.72;80.47;103220.38;5049864;28;20056;-62
2022/01/26 04:50:44;;;;;;;129.17;51.43;;;;;;;1.72;81.00;103209.91;5042714;28;20072;-61
2022/01/26 04:53:09;;;;;;;127.83;51.43;;;;;;;1.72;80.16;103216.00;5040673;28;20103;-61
2022/01/26 04:55:35;;;;;;;128.37;51.17;;;;;;;1.75;80.88;103215.06;5043967;28;20080;-62
2022/01/26 04:58:00;;;;;;;131.77;52.33;;;;;;;1.72;81.11;103202.94;5053329;28;20040;-62
2022/01/26 05:00:26;;;;;;;130.37;50.60;;;;;;;1.71;80.96;103206.47;5047177;28;20072;-62
2022/01/26 05:02:51;;;;;;;127.00;51.37;;;;;;;1.73;80.73;103219.50;5046233;28;20037;-61
2022/01/26 05:05:16;;;;;;;129.10;51.97;;;;;;;1.69;80.94;103200.44;5041377;28;20049;-62
2022/01/26 05:07:42;;;;;;;127.73;50.17;;;;;;;1.70;80.91;103202.13;5046691;28;20043;-62
2022/01/26 05:10:07;;;;;;;125.27;50.73;;;;;;;1.70;80.86;103202.13;5045109;28;20029;-62
2022/01/26 05:12:34;;;;;;;121.73;49.23;;;;;;;1.70;81.24;103196.91;5048200;28;20032;-62
2022/01/26 05:14:59;;;;;;;125.90;49.93;;;;;;;1.68;80.99;103209.16;5044841;28;20087;-62
2022/01/26 05:17:25;;;;;;;122.20;48.77;;;;;;;1.69;80.83;103205.66;5051808;28;20028;-62
2022/01/26 05:19:55;;;;;;;126.53;50.67;;;;;;;1.69;81.75;103197.81;5043355;28;20071;-62
2022/01/26 05:22:20;;;;;;;126.97;49.97;;;;;;;1.69;81.12;103189.97;5043914;28;20038;-62
2022/01/26 05:24:47;;;;;;;127.93;50.17;;;;;;;1.70;81.41;103169.88;5050751;28;20483;-62
2022/01/26 05:27:13;;;;;;;122.00;49.67;;;;;;;1.68;81.62;103176.91;5049326;28;20044;-62
2022/01/26 05:29:38;;;;;;;122.80;50.03;;;;;;;1.69;81.16;103162.94;5048894;28;20044;-61
2022/01/26 05:32:03;;;;;;;128.07;50.40;;;;;;;1.67;81.35;103162.13;5041307;28;20042;-62
2022/01/26 05:34:29;;;;;;;126.40;50.33;;;;;;;1.69;81.07;103158.56;5050734;28;20048;-62
2022/01/26 05:36:54;;;;;;;131.07;51.30;;;;;;;1.68;81.42;103156.84;5046704;28;20071;-62
2022/01/26 05:39:19;;;;;;;126.50;49.77;;;;;;;1.68;81.20;103162.06;5048330;28;20399;-62
2022/01/26 05:41:44;;;;;;;128.90;49.93;;;;;;;1.69;80.87;103170.78;5043605;28;20032;-62
2022/01/26 05:44:10;;;;;;;133.00;51.60;;;;;;;1.68;81.40;103167.28;5049541;28;20036;-62
2022/01/26 05:46:43;;;;;;;125.60;50.13;;;;;;;1.68;81.32;103172.53;5042268;28;20064;-62
2022/01/26 05:49:09;;;;;;;;;;;;;;;1.76;81.43;103161.84;5045104;28;20029;-62
2022/01/26 05:51:35;;;;;;;129.37;50.97;;;;;;;1.69;81.47;103158.56;5052025;28;19913;-62
2022/01/26 05:54:01;;;;;;;127.47;50.17;;;;;;;1.67;81.67;103170.81;5046626;28;20500;-61
2022/01/26 05:56:27;;;;;;;127.73;50.07;;;;;;;1.67;81.56;103160.34;5037594;28;20033;-61
2022/01/26 05:58:52;;;;;;;123.57;50.90;;;;;;;1.69;81.77;103158.56;5041410;28;20044;-63
2022/01/26 06:01:19;;;;;;;128.73;51.43;;;;;;;1.70;81.85;103159.41;5038106;28;20029;-58
2022/01/26 06:03:44;;;;;;;127.80;52.73;;;;;;;1.70;81.98;103149.81;5043794;28;20120;-59
2022/01/26 06:06:09;;;;;;;131.10;52.90;;;;;;;1.71;81.70;103151.53;5040780;28;20139;-59
2022/01/26 06:08:35;;;;;;;134.50;53.23;;;;;;;1.71;81.98;103145.41;5037940;28;20588;-59
2022/01/26 06:11:01;;;;;;;127.47;51.80;;;;;;;1.72;82.17;103153.22;5035437;28;20033;-59
2022/01/26 06:13:27;;;;;;;125.90;51.07;;;;;;;1.71;81.85;103151.53;5041406;28;20502;-58
2022/01/26 06:15:52;;;;;;;130.57;51.10;;;;;;;1.70;82.15;103152.44;5041625;28;20033;-59
2022/01/26 06:18:18;;;;;;;130.03;51.97;;;;;;;1.69;82.26;103158.56;5036928;28;20032;-59
2022/01/26 06:20:43;;;;;;;134.73;52.53;;;;;;;1.69;82.36;103163.81;5032508;28;20663;-58
2022/01/26 06:23:09;;;;;;;126.23;51.00;;;;;;;1.70;82.73;103168.13;5038855;28;20068;-58
2022/01/26 06:25:34;;;;;;;131.43;51.13;;;;;;;1.71;82.23;103167.22;5042552;28;20469;-57
2022/01/26 06:28:01;;;;;;;127.37;51.30;;;;;;;1.71;82.74;103167.22;5038705;28;20061;-59
2022/01/26 06:30:26;;;;;;;129.47;51.67;;;;;;;1.70;82.68;103155.06;5036437;28;20452;-59
2022/01/26 06:32:52;;;;;;;131.13;52.00;;;;;;;1.68;82.75;103146.38;5039630;28;20060;-59
2022/01/26 06:35:18;;;;;;;130.97;52.50;;;;;;;1.68;82.96;103151.59;5043061;28;20087;-59
2022/01/26 06:37:44;;;;;;;133.30;52.53;;;;;;;1.69;83.08;103148.09;5041131;28;20048;-59
2022/01/26 06:40:09;;;;;;;133.73;53.00;;;;;;;1.70;83.31;103147.19;5032878;28;20051;-62
2022/01/26 06:42:49;;;;;;;126.40;51.73;;;;;;;1.70;83.48;103157.66;5034039;28;20363;-63
2022/01/26 06:45:18;;;;;;;131.90;50.90;;;;;;;1.73;83.11;103154.09;5044385;28;20044;-62
2022/01/26 06:47:55;;;;;;;137.80;53.33;;;;;;;1.76;82.77;103153.16;5037526;28;20112;-62
2022/01/26 06:50:20;;;;;;;131.30;51.30;;;;;;;1.77;82.67;103165.31;5049776;28;20451;-62
2022/01/26 06:52:47;;;;;;;126.77;53.97;;;;;;;1.72;83.05;103168.94;5042591;28;20112;-63
2022/01/26 06:55:13;;;;;;;131.77;52.53;;;;;;;1.74;82.85;103181.97;5046291;28;20115;-62
2022/01/26 06:57:39;;;;;;;140.57;54.43;;;;;;;1.70;83.39;103167.25;5037966;28;20108;-62
2022/01/26 07:00:06;;;;;;;138.83;52.70;;;;;;;1.71;83.53;103156.75;5033223;28;20440;-62
2022/01/26 07:02:31;;;;;;;135.33;55.07;;;;;;;1.69;83.94;103153.34;5034396;28;20045;-57
2022/01/26 07:04:56;;;;;;;137.00;53.37;;;;;;;1.67;84.24;103160.34;5033969;28;20119;-62
2022/01/26 07:07:22;;;;;;;140.17;55.00;;;;;;;1.69;83.74;103160.31;5035210;28;20439;-63
2022/01/26 07:09:47;;;;;;;140.43;54.20;;;;;;;1.67;84.30;103157.75;5043550;28;20029;-62
2022/01/26 07:12:12;;;;;;;136.13;52.67;;;;;;;1.75;83.95;103152.28;5045067;28;20036;-62
2022/01/26 07:21:12;;;;;;;140.53;54.97;;;;;;;1.82;83.26;103163.44;5045722;28;20032;-63
2022/01/26 07:22:52;;;;;;;144.87;55.47;;;;;;;1.77;83.94;103175.78;5040430;28;20159;-62
2022/01/26 07:25:17;;;;;;;141.03;54.23;;;;;;;1.76;83.76;103184.56;5042681;28;20108;-63
2022/01/26 07:27:43;;;;;;;140.80;54.50;;;;;;;1.80;83.86;103196.63;5032579;28;20519;-61
2022/01/26 07:30:09;;;;;;;145.60;51.53;;;;;;;1.77;84.38;103196.72;5032952;28;20067;-62
2022/01/26 07:32:36;;;;;;;151.47;56.53;;;;;;;1.71;85.29;103180.31;5036772;28;20049;-59
2022/01/26 07:35:03;;;;;;;147.63;56.87;;;;;;;1.73;85.27;103186.34;5034545;28;20068;-60
2022/01/26 07:37:28;;;;;;;142.20;54.70;;;;;;;1.77;84.99;103188.88;5044904;28;20028;-62
2022/01/26 07:40:06;;;;;;;146.07;55.10;;;;;;;1.78;84.60;103173.09;5038767;28;20400;-62
2022/01/26 07:42:34;;;;;;;153.77;56.57;;;;;;;1.72;85.49;103182.00;5041123;28;20033;-62
2022/01/26 07:45:01;;;;;;;151.70;55.53;;;;;;;1.72;85.85;103178.53;5036454;28;20033;-63
2022/01/26 07:47:26;;;;;;;148.50;56.40;;;;;;;1.83;85.08;103170.38;5033800;28;20470;-62
2022/01/26 07:49:55;;;;;;;150.80;55.53;;;;;;;1.71;85.97;103187.28;5033511;28;20041;-62
2022/01/26 07:52:20;;;;;;;153.83;55.73;;;;;;;1.67;86.65;103186.50;5042473;28;20119;-63
2022/01/26 07:54:48;;;;;;;153.33;56.73;;;;;;;1.76;86.14;103179.31;5038962;28;20105;-62
2022/01/26 07:57:13;;;;;;;147.10;54.07;;;;;;;1.71;86.90;103180.31;5042505;28;20407;-63
2022/01/26 07:59:38;;;;;;;146.17;52.57;;;;;;;1.71;86.58;103182.91;5035418;28;20036;-63
2022/01/26 08:02:04;;;;;;;150.20;54.23;;;;;;;1.68;87.04;103203.91;5036891;28;20397;-63
2022/01/26 08:04:29;;;;;;;150.43;55.77;;;;;;;1.78;86.92;103203.66;5038624;28;20033;-62
2022/01/26 08:06:54;;;;;;;150.23;55.00;;;;;;;1.69;88.01;103213.50;5038185;28;20037;-62
2022/01/26 08:09:20;;;;;;;150.43;54.67;;;;;;;1.69;87.76;103210.91;5031716;28;20057;-59
2022/01/26 08:11:45;;;;;;;155.83;53.40;;;;;;;1.71;87.71;103203.84;5031826;28;20033;-58
2022/01/26 08:14:10;;;;;;;156.03;55.27;;;;;;;1.70;87.97;103201.25;5038931;28;20128;-59
2022/01/26 08:16:36;;;;;;;149.53;54.13;;;;;;;1.70;87.88;103202.13;5038089;28;20417;-59
2022/01/26 08:19:02;;;;;;;149.03;53.50;;;;;;;1.70;88.29;103211.72;5046322;28;20045;-59
2022/01/26 08:21:27;;;;;;;151.10;54.47;;;;;;;1.72;88.20;103216.00;5036431;28;20040;-59
2022/01/26 08:24:01;;;;;;;144.23;53.00;;;;;;;1.83;87.70;103223.53;5036079;28;20076;-59
2022/01/26 08:26:36;;;;;;;144.87;52.33;;;;;;;1.80;88.16;103212.31;5036206;28;20064;-59
2022/01/26 08:29:02;;;;;;;152.77;52.67;;;;;;;1.70;88.70;103201.25;5034710;28;20352;-59
2022/01/26 08:31:27;;;;;;;146.80;53.60;;;;;;;1.70;89.18;103202.13;5030011;28;20528;-59
2022/01/26 08:33:53;;;;;;;154.53;54.93;;;;;;;1.72;89.22;103208.16;5038759;28;20032;-59
2022/01/26 08:36:18;;;;;;;146.07;53.00;;;;;;;1.76;88.99;103202.88;5034566;28;20036;-58
2022/01/26 08:38:43;;;;;;;150.23;52.77;;;;;;;1.76;88.89;103205.47;5035666;28;20068;-58
2022/01/26 08:41:10;;;;;;;147.87;51.80;;;;;;;1.76;89.26;103214.16;5050517;28;20082;-59
2022/01/26 08:43:35;;;;;;;148.60;53.63;;;;;;;1.73;89.18;103203.81;5051712;28;20553;-59
2022/01/26 08:46:00;;;;;;;148.17;53.10;;;;;;;1.73;89.89;103212.50;5046340;28;20025;-59
2022/01/26 08:48:26;;;;;;;145.77;52.67;;;;;;;1.76;89.39;103213.31;5046356;28;20041;-59
2022/01/26 08:50:51;;;;;;;150.03;53.97;;;;;;;1.76;89.79;103216.78;5044546;28;20105;-63
2022/01/26 08:53:17;;;;;;;144.47;52.03;;;;;;;1.77;90.23;103215.03;5044105;28;20094;-63
2022/01/26 08:55:43;;;;;;;145.93;51.40;;;;;;;1.80;89.81;103222.78;5047830;28;20484;-63
2022/01/26 08:58:08;;;;;;;145.93;54.30;;;;;;;1.77;90.05;103208.03;5053240;28;20037;-63
2022/01/26 09:00:35;;;;;;;138.93;51.10;;;;;;;1.81;89.94;103214.91;5048134;28;20590;-62
2022/01/26 09:03:01;;;;;;;147.10;52.87;;;;;;;1.80;89.92;103217.56;5051245;28;20078;-63
2022/01/26 09:05:26;;;;;;;137.53;51.37;;;;;;;1.82;89.90;103213.97;5046000;28;20119;-63
2022/01/26 09:07:56;;;;;;;136.77;50.83;;;;;;;1.79;90.50;103208.00;5051633;28;20476;-63
2022/01/26 09:10:21;;;;;;;130.23;50.07;;;;;;;1.83;90.10;103207.00;5047738;28;20052;-63
2022/01/26 09:12:48;;;;;;;130.40;49.57;;;;;;;1.85;90.19;103205.19;5045315;28;20025;-63
2022/01/26 09:15:14;;;;;;;132.17;50.03;;;;;;;1.85;90.15;103210.44;5040873;28;20025;-63
2022/01/26 09:17:42;;;;;;;129.53;50.30;;;;;;;1.86;90.11;103218.25;5049036;28;20029;-62
2022/01/26 09:20:09;;;;;;;122.33;47.57;;;;;;;1.94;89.63;103215.41;5043118;28;20044;-63
2022/01/26 09:22:34;;;;;;;127.33;48.97;;;;;;;1.92;89.79;103217.19;5049319;28;20063;-63
2022/01/26 09:25:00;;;;;;;123.40;47.67;;;;;;;1.93;89.60;103223.28;5042630;28;20065;-63
2022/01/26 09:27:25;;;;;;;120.30;46.23;;;;;;;1.95;89.33;103224.97;5041845;28;20028;-63
2022/01/26 09:29:50;;;;;;;126.43;47.67;;;;;;;1.96;89.71;103231.91;5037225;28;20044;-62
2022/01/26 09:32:16;;;;;;;126.97;48.70;;;;;;;1.95;89.60;103235.44;5049644;28;20570;-63
2022/01/26 09:34:42;;;;;;;126.07;47.97;;;;;;;1.96;89.56;103233.66;5050214;28;20041;-63
2022/01/26 09:37:13;;;;;;;124.17;49.80;;;;;;;1.96;89.81;103226.66;5044068;28;20053;-63
2022/01/26 09:39:40;;;;;;;121.77;47.97;;;;;;;1.93;89.49;103224.13;5052585;28;20039;-63
2022/01/26 09:42:06;;;;;;;118.47;47.90;;;;;;;2.04;89.06;103215.97;5045704;28;20041;-63
2022/01/26 09:44:32;;;;;;;122.73;49.53;;;;;;;1.97;89.70;103215.28;5051237;28;20473;-63
2022/01/26 09:46:58;;;;;;;119.17;47.43;;;;;;;2.05;88.96;103208.97;5049189;28;20036;-63
2022/01/26 09:49:31;;;;;;;120.17;47.27;;;;;;;1.99;89.50;103207.41;5052493;28;20024;-63
2022/01/26 09:51:59;;;;;;;117.33;46.60;;;;;;;2.01;89.59;103201.22;5045382;28;20537;-63
2022/01/26 09:54:30;;;;;;;114.70;47.93;;;;;;;2.05;88.68;103191.50;5049410;28;20057;-63
2022/01/26 09:57:00;;;;;;;106.43;44.97;;;;;;;2.06;88.91;103187.16;5045943;28;20158;-62
2022/01/26 09:59:25;;;;;;;105.77;45.30;;;;;;;2.09;88.74;103192.28;5037503;28;20337;-62
2022/01/26 10:01:51;;;;;;;113.60;46.77;;;;;;;2.07;89.23;103194.09;5029806;28;20037;-62
2022/01/26 10:04:24;;;;;;;100.93;42.80;;;;;;;2.15;88.10;103198.19;5040903;28;20495;-62
2022/01/26 10:17:37;;;;;;;90.93;40.13;;;;;;;2.20;87.75;103192.78;5035793;28;20044;-63
2022/01/26 10:20:05;;;;;;;89.00;39.87;;;;;;;2.16;87.77;103193.78;5034979;28;20489;-61
2022/01/26 10:22:32;;;;;;;91.27;41.50;;;;;;;2.25;86.84;103193.50;5032005;28;20033;-62
2022/01/26 10:25:15;;;;;;;89.55;40.85;;;;;;;2.23;87.41;103186.59;5035469;28;20391;-63
2022/01/26 10:27:44;;;;;;;88.78;41.30;;;;;;;2.21;87.85;103176.19;5033804;28;20265;-62
2022/01/26 10:30:13;;;;;;;95.60;43.30;;;;;;;2.21;87.69;103168.31;5031309;28;20053;-62
2022/01/26 10:32:41;;;;;;;88.17;40.80;;;;;;;2.23;87.77;103163.03;5033536;28;20473;-63
2022/01/26 10:35:08;;;;;;;87.10;41.50;;;;;;;2.25;87.77;103177.81;5037013;28;20025;-62
2022/01/26 10:37:35;;;;;;;89.40;41.70;;;;;;;2.25;88.09;103192.63;5033308;28;20029;-62
2022/01/26 10:40:17;;;;;;;86.97;39.83;;;;;;;2.27;87.70;103194.31;5032897;28;20495;-62
2022/01/26 10:43:04;;;;;;;91.93;42.22;;;;;;;2.31;88.15;103217.78;5035932;28;20025;-62
2022/01/26 10:45:50;;;;;;;88.97;41.57;;;;;;;2.27;87.97;103228.34;5033983;28;20113;-58
2022/01/26 10:48:25;;;;;;;91.33;42.57;;;;;;;2.26;88.47;103244.97;5033434;28;20036;-59
2022/01/26 10:53:41;;;;;;;85.43;40.33;;;;;;;2.27;88.05;103233.59;5040245;28;20075;-59
2022/01/26 10:56:07;;;;;;;85.63;40.80;;;;;;;2.32;88.07;103228.19;5038114;28;20041;-59
2022/01/26 10:58:32;;;;;;;93.30;41.77;;;;;;;2.33;88.17;103231.69;5036885;28;20028;-58
2022/01/26 11:00:58;;;;;;;91.50;42.47;;;;;;;2.32;88.10;103235.22;5040333;28;20033;-59
2022/01/26 11:03:23;;;;;;;88.83;39.30;;;;;;;2.34;88.16;103217.69;5037164;28;20746;-59
2022/01/26 11:05:50;;;;;;;100.63;43.90;;;;;;;2.27;88.56;103215.25;5036091;28;20132;-59
2022/01/26 11:08:16;;;;;;;96.70;42.57;;;;;;;2.27;88.92;103217.03;5043162;28;20116;-58
2022/01/26 11:10:45;;;;;;;96.93;41.70;;;;;;;2.31;88.47;103217.78;5037409;28;20033;-59
2022/01/26 11:13:10;;;;;;;96.87;43.40;;;;;;;2.29;88.83;103221.28;5036961;28;20033;-58
2022/01/26 11:15:36;;;;;;;99.50;43.67;;;;;;;2.33;88.52;103214.22;5034970;28;20404;-59
2022/01/26 11:18:12;;;;;;;99.77;44.00;;;;;;;2.28;89.69;103208.28;5041612;28;20127;-58
2022/01/26 11:20:48;;;;;;;93.77;41.47;;;;;;;2.39;88.47;103215.78;5038365;28;20116;-58
2022/01/26 11:23:14;;;;;;;97.90;42.97;;;;;;;2.29;89.05;103200.34;5038815;28;20030;-59
2022/01/26 11:25:42;;;;;;;101.50;44.33;;;;;;;2.28;89.39;103195.19;5040382;28;20029;-59
2022/01/26 11:28:19;;;;;;;95.87;44.17;;;;;;;2.29;89.14;103195.09;5043200;28;20681;-57
2022/01/26 11:30:45;;;;;;;93.87;42.50;;;;;;;2.33;89.03;103198.50;5039601;28;20033;-59
2022/01/26 11:33:18;;;;;;;99.60;43.83;;;;;;;2.33;89.32;103205.50;5039590;28;20468;-59
2022/01/26 11:35:47;;;;;;;92.15;42.45;;;;;;;2.33;89.03;103201.13;5051156;28;20021;-58
2022/01/26 11:46:55;;;;;;;95.40;42.47;;;;;;;2.58;88.20;103183.75;5046518;28;20542;-58
2022/01/26 11:49:43;;;;;;;99.87;43.23;;;;;;;2.50;89.12;103171.75;5045327;28;20025;-59
2022/01/26 11:52:27;;;;;;;96.87;42.67;;;;;;;2.51;89.10;103163.00;5048430;28;20028;-59
2022/01/26 11:54:56;;;;;;;96.03;43.70;;;;;;;2.54;89.13;103168.16;5053155;28;20033;-59
2022/01/26 11:57:37;;;;;;;96.30;44.73;;;;;;;2.54;89.10;103162.91;5040723;28;20074;-59
2022/01/26 12:00:08;;;;;;;96.60;43.03;;;;;;;2.57;88.92;103167.19;5041514;28;20025;-59
2022/01/26 12:05:15;;;;;;;93.97;43.53;;;;;;;2.60;89.00;103155.72;5044118;28;20045;-58
2022/01/26 12:07:52;;;;;;;97.47;42.37;;;;;;;2.71;88.57;103164.06;5044913;28;20053;-58
2022/01/26 12:10:27;;;;;;;92.03;42.60;;;;;;;2.58;88.52;103153.19;5040954;28;20033;-59
2022/01/26 12:13:07;;;;;;;92.07;43.07;;;;;;;2.63;88.78;103150.41;5044769;28;20041;-58
2022/01/26 12:15:44;;;;;;;99.37;42.43;;;;;;;2.63;88.94;103156.50;5048148;28;20039;-59
2022/01/26 12:35:25;;;;;;;97.13;43.33;;;;;;;2.69;88.11;103165.91;5052956;28;20132;-62
2022/01/26 12:38:04;;;;;;;93.87;42.07;;;;;;;2.73;88.62;103166.66;5042310;28;20032;-63
2022/01/26 12:43:43;;;;;;;88.60;41.97;;;;;;;2.78;88.32;103159.50;5052883;28;20051;-63
2022/01/26 12:46:15;;;;;;;90.90;40.90;;;;;;;2.75;87.88;103160.47;5051817;28;20047;-59
2022/01/26 12:48:46;;;;;;;88.63;39.93;;;;;;;2.80;87.22;103161.16;5053857;28;20036;-58
2022/01/26 12:51:12;;;;;;;86.37;40.40;;;;;;;2.77;87.28;103155.16;5041928;28;20025;-60
2022/01/26 12:53:40;;;;;;;89.80;41.90;;;;;;;2.74;87.17;103157.88;5045835;28;20033;-59
2022/01/26 12:56:12;;;;;;;90.33;41.87;;;;;;;2.76;87.73;103158.72;5050171;28;20070;-59
2022/01/26 12:58:39;;;;;;;88.73;41.30;;;;;;;2.76;87.51;103158.72;5048363;28;20029;-59
2022/01/26 13:01:08;;;;;;;88.57;42.30;;;;;;;2.80;87.28;103162.91;5059664;28;20047;-57
2022/01/26 13:03:37;;;;;;;85.20;40.90;;;;;;;2.81;86.96;103155.00;5052321;28;20412;-61
2022/01/26 13:06:05;;;;;;;87.13;41.10;;;;;;;2.84;87.48;103164.53;5052928;28;20037;-61
2022/01/26 13:08:47;;;;;;;88.40;39.10;;;;;;;3.00;86.61;103159.59;5049869;28;21333;-60
2022/01/26 13:11:41;;;;;;;87.47;41.03;;;;;;;2.81;86.59;103144.53;5051497;28;20021;-62
2022/01/26 13:14:21;;;;;;;92.07;42.03;;;;;;;2.81;88.38;103134.03;5052239;28;20037;-63
2022/01/26 13:20:03;;;;;;;84.77;41.00;;;;;;;2.86;86.63;103123.38;5046747;28;20036;-60
2022/01/26 13:25:25;;;;;;;86.20;40.07;;;;;;;2.83;87.75;103134.84;5059257;28;20072;-60
2022/01/26 13:28:08;;;;;;;80.23;39.13;;;;;;;2.87;87.09;103126.88;5051839;28;20044;-60
2022/01/26 13:36:02;;;;;;;85.38;41.67;;;;;;;2.91;87.33;103120.63;5051146;28;20048;-59
2022/01/26 13:38:46;;;;;;;82.07;40.13;;;;;;;2.93;86.91;103118.78;5050960;28;20124;-60
2022/01/26 13:55:00;;;;;;;87.00;40.00;;;;;;;2.97;87.33;103102.06;5056859;28;20036;-59
2022/01/26 13:57:48;;;;;;;85.68;40.50;;;;;;;3.00;86.70;103101.94;5051490;28;20025;-59